sensor_id;sensor_type;location;lat;lon;timestamp;pressure;altitude;pressure_sealevel;temperature;humidity
62849;BME280;48941;49.516;8.286;2023-10-31T00:01:01;98789.84;;;11.72;100.00
62849;BME280;48941;49.516;8.286;2023-10-31T00:03:30;98788.16;;;11.71;100.00
62849;BME280;48941;49.516;8.286;2023-10-31T00:05:58;98793.66;;;11.70;100.00
62849;BME280;48941;49.516;8.286;2023-10-31T00:08:27;98787.88;;;11.66;100.00
62849;BME280;48941;49.516;8.286;2023-10-31T00:10:55;98788.19;;;11.63;100.00
62849;BME280;48941;49.516;8.286;2023-10-31T00:13:23;98798.03;;;11.63;100.00
62849;BME280;48941;49.516;8.286;2023-10-31T00:15:51;98792.03;;;11.61;100.00
62849;BME280;48941;49.516;8.286;2023-10-31T00:18:19;98793.19;;;11.58;100.00
62849;BME280;48941;49.516;8.286;2023-10-31T00:20:47;98803.38;;;11.54;100.00
62849;BME280;48941;49.516;8.286;2023-10-31T00:23:18;98802.03;;;11.50;100.00
62849;BME280;48941;49.516;8.286;2023-10-31T00:25:47;98809.03;;;11.51;100.00
62849;BME280;48941;49.516;8.286;2023-10-31T00:28:15;98809.03;;;11.51;100.00
62849;BME280;48941;49.516;8.286;2023-10-31T00:30:43;98811.38;;;11.46;100.00
62849;BME280;48941;49.516;8.286;2023-10-31T00:33:11;98812.38;;;11.45;100.00
62849;BME280;48941;49.516;8.286;2023-10-31T00:35:39;98812.53;;;11.44;100.00
62849;BME280;48941;49.516;8.286;2023-10-31T00:38:06;98812.53;;;11.44;100.00
62849;BME280;48941;49.516;8.286;2023-10-31T00:40:34;98794.88;;;11.43;100.00
62849;BME280;48941;49.516;8.286;2023-10-31T00:43:04;98807.19;;;11.44;100.00
62849;BME280;48941;49.516;8.286;2023-10-31T00:45:31;98799.53;;;11.41;100.00
62849;BME280;48941;49.516;8.286;2023-10-31T00:47:59;98798.69;;;11.40;100.00
62849;BME280;48941;49.516;8.286;2023-10-31T00:50:27;98794.69;;;11.36;100.00
62849;BME280;48941;49.516;8.286;2023-10-31T00:52:55;98793.19;;;11.33;100.00
62849;BME280;48941;49.516;8.286;2023-10-31T00:55:23;98799.34;;;11.34;100.00
62849;BME280;48941;49.516;8.286;2023-10-31T00:57:51;98807.19;;;11.35;100.00
62849;BME280;48941;49.516;8.286;2023-10-31T01:00:22;98801.19;;;11.33;100.00
62849;BME280;48941;49.516;8.286;2023-10-31T01:02:50;98803.88;;;11.33;100.00
62849;BME280;48941;49.516;8.286;2023-10-31T01:05:18;98803.19;;;11.31;100.00
62849;BME280;48941;49.516;8.286;2023-10-31T01:07:46;98794.53;;;11.29;100.00
62849;BME280;48941;49.516;8.286;2023-10-31T01:10:14;98811.53;;;11.28;100.00
62849;BME280;48941;49.516;8.286;2023-10-31T01:12:42;98805.88;;;11.31;100.00
62849;BME280;48941;49.516;8.286;2023-10-31T01:15:12;98811.19;;;11.31;100.00
62849;BME280;48941;49.516;8.286;2023-10-31T01:17:41;98813.19;;;11.29;100.00
62849;BME280;48941;49.516;8.286;2023-10-31T01:20:09;98822.53;;;11.25;100.00
62849;BME280;48941;49.516;8.286;2023-10-31T01:22:38;98832.69;;;11.22;100.00
62849;BME280;48941;49.516;8.286;2023-10-31T01:25:06;98827.69;;;11.19;100.00
62849;BME280;48941;49.516;8.286;2023-10-31T01:27:34;98827.19;;;11.15;100.00
62849;BME280;48941;49.516;8.286;2023-10-31T01:30:02;98835.84;;;11.09;100.00
62849;BME280;48941;49.516;8.286;2023-10-31T01:32:30;98847.63;;;11.06;100.00
62849;BME280;48941;49.516;8.286;2023-10-31T01:34:59;98841.97;;;11.01;100.00
62849;BME280;48941;49.516;8.286;2023-10-31T01:37:27;98844.81;;;11.00;100.00
62849;BME280;48941;49.516;8.286;2023-10-31T01:39:55;98848.63;;;10.97;100.00
62849;BME280;48941;49.516;8.286;2023-10-31T01:42:23;98846.28;;;10.94;100.00
62849;BME280;48941;49.516;8.286;2023-10-31T01:44:51;98856.59;;;10.89;100.00
62849;BME280;48941;49.516;8.286;2023-10-31T01:47:19;98855.94;;;10.87;100.00
62849;BME280;48941;49.516;8.286;2023-10-31T01:49:46;98858.91;;;10.84;100.00
62849;BME280;48941;49.516;8.286;2023-10-31T01:52:16;98860.75;;;10.83;100.00
62849;BME280;48941;49.516;8.286;2023-10-31T01:54:44;98855.25;;;10.85;100.00
62849;BME280;48941;49.516;8.286;2023-10-31T01:57:13;98859.59;;;10.86;100.00
62849;BME280;48941;49.516;8.286;2023-10-31T01:59:41;98856.91;;;10.86;100.00
62849;BME280;48941;49.516;8.286;2023-10-31T02:02:09;98857.75;;;10.86;100.00
62849;BME280;48941;49.516;8.286;2023-10-31T02:04:37;98854.94;;;10.88;100.00
62849;BME280;48941;49.516;8.286;2023-10-31T02:07:05;98854.25;;;10.86;100.00
62849;BME280;48941;49.516;8.286;2023-10-31T02:09:34;98859.59;;;10.86;100.00
62849;BME280;48941;49.516;8.286;2023-10-31T02:12:03;98846.41;;;10.84;100.00
62849;BME280;48941;49.516;8.286;2023-10-31T02:14:31;98847.44;;;10.83;100.00
62849;BME280;48941;49.516;8.286;2023-10-31T02:16:59;98849.41;;;10.81;100.00
62849;BME280;48941;49.516;8.286;2023-10-31T02:19:27;98849.72;;;10.78;100.00
62849;BME280;48941;49.516;8.286;2023-10-31T02:21:56;98850.75;;;10.77;100.00
62849;BME280;48941;49.516;8.286;2023-10-31T02:24:24;98850.91;;;10.75;100.00
62849;BME280;48941;49.516;8.286;2023-10-31T02:26:52;98860.72;;;10.75;100.00
62849;BME280;48941;49.516;8.286;2023-10-31T02:29:20;98864.38;;;10.74;100.00
62849;BME280;48941;49.516;8.286;2023-10-31T02:31:48;98868.19;;;10.71;100.00
62849;BME280;48941;49.516;8.286;2023-10-31T02:34:16;98864.72;;;10.71;100.00
62849;BME280;48941;49.516;8.286;2023-10-31T02:36:43;98864.03;;;10.69;100.00
62849;BME280;48941;49.516;8.286;2023-10-31T02:39:13;98863.38;;;10.67;100.00
62849;BME280;48941;49.516;8.286;2023-10-31T02:41:40;98872.19;;;10.67;100.00
62849;BME280;48941;49.516;8.286;2023-10-31T02:44:08;98873.16;;;10.66;100.00
62849;BME280;48941;49.516;8.286;2023-10-31T02:46:38;98872.47;;;10.64;100.00
62849;BME280;48941;49.516;8.286;2023-10-31T02:49:06;98880.81;;;10.61;100.00
62849;BME280;48941;49.516;8.286;2023-10-31T02:51:36;98878.81;;;10.63;100.00
62849;BME280;48941;49.516;8.286;2023-10-31T02:54:05;98883.66;;;10.68;100.00
62849;BME280;48941;49.516;8.286;2023-10-31T02:56:34;98892.31;;;10.70;100.00
62849;BME280;48941;49.516;8.286;2023-10-31T02:59:02;98897.34;;;10.73;100.00
62849;BME280;48941;49.516;8.286;2023-10-31T03:01:30;98897.19;;;10.74;100.00
62849;BME280;48941;49.516;8.286;2023-10-31T03:03:57;98904.84;;;10.77;100.00
62849;BME280;48941;49.516;8.286;2023-10-31T03:06:25;98904.00;;;10.77;100.00
62849;BME280;48941;49.516;8.286;2023-10-31T03:08:53;98910.97;;;10.78;100.00
62849;BME280;48941;49.516;8.286;2023-10-31T03:11:21;98912.66;;;10.79;100.00
62849;BME280;48941;49.516;8.286;2023-10-31T03:13:51;98913.50;;;10.80;100.00
62849;BME280;48941;49.516;8.286;2023-10-31T03:16:20;98916.00;;;10.81;100.00
62849;BME280;48941;49.516;8.286;2023-10-31T03:18:48;98915.66;;;10.84;100.00
62849;BME280;48941;49.516;8.286;2023-10-31T03:21:16;98928.16;;;10.84;100.00
62849;BME280;48941;49.516;8.286;2023-10-31T03:23:48;98928.69;;;10.87;100.00
62849;BME280;48941;49.516;8.286;2023-10-31T03:26:16;98926.69;;;10.89;100.00
62849;BME280;48941;49.516;8.286;2023-10-31T03:28:45;98923.88;;;10.91;100.00
62849;BME280;48941;49.516;8.286;2023-10-31T03:31:14;98943.03;;;10.94;100.00
62849;BME280;48941;49.516;8.286;2023-10-31T03:33:43;98946.53;;;10.95;100.00
62849;BME280;48941;49.516;8.286;2023-10-31T03:36:10;98957.84;;;10.97;100.00
62849;BME280;48941;49.516;8.286;2023-10-31T03:38:38;98954.38;;;10.96;100.00
62849;BME280;48941;49.516;8.286;2023-10-31T03:41:07;98957.84;;;10.97;100.00
62849;BME280;48941;49.516;8.286;2023-10-31T03:43:35;98957.69;;;10.99;100.00
62849;BME280;48941;49.516;8.286;2023-10-31T03:46:04;98952.19;;;11.00;100.00
62849;BME280;48941;49.516;8.286;2023-10-31T03:48:33;98956.69;;;11.00;100.00
62849;BME280;48941;49.516;8.286;2023-10-31T03:51:01;98964.53;;;11.01;100.00
62849;BME280;48941;49.516;8.286;2023-10-31T03:53:29;98957.53;;;11.00;100.00
62849;BME280;48941;49.516;8.286;2023-10-31T03:55:58;98963.53;;;11.02;100.00
62849;BME280;48941;49.516;8.286;2023-10-31T03:58:26;98968.84;;;11.02;100.00
62849;BME280;48941;49.516;8.286;2023-10-31T04:00:54;98968.03;;;11.02;100.00
62849;BME280;48941;49.516;8.286;2023-10-31T04:03:22;98966.03;;;11.04;100.00
62849;BME280;48941;49.516;8.286;2023-10-31T04:05:51;98974.03;;;11.04;100.00
62849;BME280;48941;49.516;8.286;2023-10-31T04:08:19;98970.53;;;11.03;100.00
62849;BME280;48941;49.516;8.286;2023-10-31T04:10:46;98972.19;;;11.04;100.00
62849;BME280;48941;49.516;8.286;2023-10-31T04:13:14;98978.38;;;11.05;100.00
62849;BME280;48941;49.516;8.286;2023-10-31T04:15:42;98977.34;;;11.06;100.00
62849;BME280;48941;49.516;8.286;2023-10-31T04:18:10;98971.22;;;11.05;100.00
62849;BME280;48941;49.516;8.286;2023-10-31T04:20:38;98967.72;;;11.05;100.00
62849;BME280;48941;49.516;8.286;2023-10-31T04:23:07;98984.53;;;11.05;100.00
62849;BME280;48941;49.516;8.286;2023-10-31T04:25:36;98978.53;;;11.03;100.00
62849;BME280;48941;49.516;8.286;2023-10-31T04:28:03;98977.50;;;11.04;100.00
62849;BME280;48941;49.516;8.286;2023-10-31T04:30:31;98983.03;;;11.03;100.00
62849;BME280;48941;49.516;8.286;2023-10-31T04:32:59;98985.69;;;11.03;100.00
62849;BME280;48941;49.516;8.286;2023-10-31T04:35:27;98997.03;;;11.05;100.00
62849;BME280;48941;49.516;8.286;2023-10-31T04:37:55;99000.38;;;11.07;100.00
62849;BME280;48941;49.516;8.286;2023-10-31T04:40:24;98996.00;;;11.06;100.00
62849;BME280;48941;49.516;8.286;2023-10-31T04:42:52;99001.69;;;11.03;100.00
62849;BME280;48941;49.516;8.286;2023-10-31T04:45:20;99001.16;;;10.99;100.00
62849;BME280;48941;49.516;8.286;2023-10-31T04:47:48;99015.78;;;10.95;100.00
62849;BME280;48941;49.516;8.286;2023-10-31T04:50:16;99009.25;;;10.89;100.00
62849;BME280;48941;49.516;8.286;2023-10-31T04:52:44;99005.25;;;10.85;100.00
62849;BME280;48941;49.516;8.286;2023-10-31T04:55:12;99004.03;;;10.80;100.00
62849;BME280;48941;49.516;8.286;2023-10-31T04:57:45;99003.53;;;10.76;100.00
62849;BME280;48941;49.516;8.286;2023-10-31T05:00:13;99003.84;;;10.73;100.00
62849;BME280;48941;49.516;8.286;2023-10-31T05:02:41;99013.81;;;10.71;100.00
62849;BME280;48941;49.516;8.286;2023-10-31T05:05:09;99004.16;;;10.70;100.00
62849;BME280;48941;49.516;8.286;2023-10-31T05:07:37;99013.97;;;10.69;100.00
62849;BME280;48941;49.516;8.286;2023-10-31T05:10:07;99008.81;;;10.68;100.00
62849;BME280;48941;49.516;8.286;2023-10-31T05:12:35;99016.94;;;10.66;100.00
62849;BME280;48941;49.516;8.286;2023-10-31T05:15:06;99012.78;;;10.64;100.00
62849;BME280;48941;49.516;8.286;2023-10-31T05:17:34;99012.09;;;10.62;100.00
62849;BME280;48941;49.516;8.286;2023-10-31T05:20:02;99015.44;;;10.64;100.00
62849;BME280;48941;49.516;8.286;2023-10-31T05:22:30;99009.13;;;10.65;100.00
62849;BME280;48941;49.516;8.286;2023-10-31T05:24:58;99003.63;;;10.66;100.00
62849;BME280;48941;49.516;8.286;2023-10-31T05:27:26;99010.50;;;10.69;100.00
62849;BME280;48941;49.516;8.286;2023-10-31T05:29:57;99009.47;;;10.70;100.00
62849;BME280;48941;49.516;8.286;2023-10-31T05:32:26;99006.97;;;10.68;100.00
62849;BME280;48941;49.516;8.286;2023-10-31T05:34:54;98998.84;;;10.70;100.00
62849;BME280;48941;49.516;8.286;2023-10-31T05:37:25;99002.16;;;10.72;100.00
62849;BME280;48941;49.516;8.286;2023-10-31T05:39:53;99011.00;;;10.72;100.00
62849;BME280;48941;49.516;8.286;2023-10-31T05:42:21;99010.84;;;10.74;100.00
62849;BME280;48941;49.516;8.286;2023-10-31T05:44:49;99019.50;;;10.76;100.00
62849;BME280;48941;49.516;8.286;2023-10-31T05:47:17;99021.50;;;10.74;100.00
62849;BME280;48941;49.516;8.286;2023-10-31T05:49:46;99033.00;;;10.74;100.00
62849;BME280;48941;49.516;8.286;2023-10-31T05:52:14;99034.97;;;10.72;100.00
62849;BME280;48941;49.516;8.286;2023-10-31T05:54:42;99032.13;;;10.74;100.00
62849;BME280;48941;49.516;8.286;2023-10-31T05:57:10;99037.47;;;10.74;100.00
62849;BME280;48941;49.516;8.286;2023-10-31T05:59:38;99046.31;;;10.74;100.00
62849;BME280;48941;49.516;8.286;2023-10-31T06:02:06;99054.31;;;10.74;100.00
62849;BME280;48941;49.516;8.286;2023-10-31T06:04:34;99047.97;;;10.75;100.00
62849;BME280;48941;49.516;8.286;2023-10-31T06:07:03;99056.63;;;10.77;100.00
62849;BME280;48941;49.516;8.286;2023-10-31T06:09:31;99054.13;;;10.76;100.00
62849;BME280;48941;49.516;8.286;2023-10-31T06:12:00;99054.13;;;10.76;100.00
62849;BME280;48941;49.516;8.286;2023-10-31T06:14:28;99067.44;;;10.76;100.00
62849;BME280;48941;49.516;8.286;2023-10-31T06:16:56;99070.28;;;10.74;100.00
62849;BME280;48941;49.516;8.286;2023-10-31T06:19:26;99070.44;;;10.73;100.00
62849;BME280;48941;49.516;8.286;2023-10-31T06:21:53;99075.59;;;10.74;100.00
62849;BME280;48941;49.516;8.286;2023-10-31T06:24:23;99081.09;;;10.73;100.00
62849;BME280;48941;49.516;8.286;2023-10-31T06:26:50;99076.59;;;10.73;100.00
62849;BME280;48941;49.516;8.286;2023-10-31T06:29:18;99077.59;;;10.72;100.00
62849;BME280;48941;49.516;8.286;2023-10-31T06:32:06;99083.06;;;10.71;100.00
62849;BME280;48941;49.516;8.286;2023-10-31T06:34:36;99076.06;;;10.70;100.00
62849;BME280;48941;49.516;8.286;2023-10-31T06:37:04;99083.22;;;10.69;100.00
62849;BME280;48941;49.516;8.286;2023-10-31T06:39:33;99092.03;;;10.70;100.00
62849;BME280;48941;49.516;8.286;2023-10-31T06:42:01;99089.38;;;10.70;100.00
62849;BME280;48941;49.516;8.286;2023-10-31T06:44:29;99094.69;;;10.70;100.00
62849;BME280;48941;49.516;8.286;2023-10-31T06:46:57;99099.88;;;10.71;100.00
62849;BME280;48941;49.516;8.286;2023-10-31T06:49:26;99107.72;;;10.73;100.00
62849;BME280;48941;49.516;8.286;2023-10-31T06:51:54;99116.53;;;10.73;100.00
62849;BME280;48941;49.516;8.286;2023-10-31T06:54:22;99121.03;;;10.73;100.00
62849;BME280;48941;49.516;8.286;2023-10-31T06:56:51;99132.38;;;10.75;100.00
62849;BME280;48941;49.516;8.286;2023-10-31T06:59:19;99123.22;;;10.77;100.00
62849;BME280;48941;49.516;8.286;2023-10-31T07:01:47;99131.22;;;10.77;100.00
62849;BME280;48941;49.516;8.286;2023-10-31T07:04:15;99133.72;;;10.79;100.00
62849;BME280;48941;49.516;8.286;2023-10-31T07:06:43;99142.53;;;10.80;100.00
62849;BME280;48941;49.516;8.286;2023-10-31T07:09:11;99145.06;;;10.81;100.00
62849;BME280;48941;49.516;8.286;2023-10-31T07:11:39;99145.06;;;10.81;100.00
62849;BME280;48941;49.516;8.286;2023-10-31T07:14:08;99147.72;;;10.81;100.00
62849;BME280;48941;49.516;8.286;2023-10-31T07:16:36;99153.72;;;10.83;100.00
62849;BME280;48941;49.516;8.286;2023-10-31T07:19:04;99152.72;;;10.84;100.00
62849;BME280;48941;49.516;8.286;2023-10-31T07:21:31;99161.41;;;10.86;100.00
62849;BME280;48941;49.516;8.286;2023-10-31T07:23:59;99156.94;;;10.87;100.00
62849;BME280;48941;49.516;8.286;2023-10-31T07:26:27;99158.44;;;10.89;100.00
62849;BME280;48941;49.516;8.286;2023-10-31T07:28:55;99161.63;;;10.93;100.00
62849;BME280;48941;49.516;8.286;2023-10-31T07:31:24;99164.97;;;10.95;100.00
62849;BME280;48941;49.516;8.286;2023-10-31T07:33:53;99176.31;;;10.97;100.00
62849;BME280;48941;49.516;8.286;2023-10-31T07:36:20;99183.47;;;10.96;100.00
62849;BME280;48941;49.516;8.286;2023-10-31T07:38:48;99178.81;;;10.99;100.00
62849;BME280;48941;49.516;8.286;2023-10-31T07:41:16;99191.69;;;11.03;100.00
62849;BME280;48941;49.516;8.286;2023-10-31T07:43:44;99195.16;;;11.04;100.00
62849;BME280;48941;49.516;8.286;2023-10-31T07:46:12;99188.19;;;11.03;100.00
62849;BME280;48941;49.516;8.286;2023-10-31T07:48:41;99184.50;;;11.04;100.00
62849;BME280;48941;49.516;8.286;2023-10-31T07:51:09;99195.03;;;11.05;100.00
62849;BME280;48941;49.516;8.286;2023-10-31T07:53:36;99196.69;;;11.06;100.00
62849;BME280;48941;49.516;8.286;2023-10-31T07:56:05;99194.53;;;11.10;100.00
62849;BME280;48941;49.516;8.286;2023-10-31T07:58:33;99201.72;;;11.09;100.00
62849;BME280;48941;49.516;8.286;2023-10-31T08:01:01;99203.53;;;11.09;100.00
62849;BME280;48941;49.516;8.286;2023-10-31T08:03:28;99212.06;;;11.12;100.00
62849;BME280;48941;49.516;8.286;2023-10-31T08:05:58;99201.09;;;11.15;100.00
62849;BME280;48941;49.516;8.286;2023-10-31T08:08:26;99196.59;;;11.16;100.00
62849;BME280;48941;49.516;8.286;2023-10-31T08:10:54;99198.28;;;11.17;100.00
62849;BME280;48941;49.516;8.286;2023-10-31T08:13:23;99204.13;;;11.21;100.00
62849;BME280;48941;49.516;8.286;2023-10-31T08:15:51;99204.63;;;11.24;100.00
62849;BME280;48941;49.516;8.286;2023-10-31T08:18:19;99213.84;;;11.30;100.00
62849;BME280;48941;49.516;8.286;2023-10-31T08:20:47;99210.72;;;11.34;100.00
62849;BME280;48941;49.516;8.286;2023-10-31T08:23:18;99221.44;;;11.43;100.00
62849;BME280;48941;49.516;8.286;2023-10-31T08:25:46;99222.47;;;11.50;100.00
62849;BME280;48941;49.516;8.286;2023-10-31T08:28:14;99213.84;;;11.56;100.00
62849;BME280;48941;49.516;8.286;2023-10-31T08:30:42;99223.03;;;11.62;100.00
62849;BME280;48941;49.516;8.286;2023-10-31T08:33:10;99230.41;;;11.68;100.00
62849;BME280;48941;49.516;8.286;2023-10-31T08:35:38;99227.44;;;11.71;100.00
62849;BME280;48941;49.516;8.286;2023-10-31T08:38:06;99236.44;;;11.78;100.00
62849;BME280;48941;49.516;8.286;2023-10-31T08:40:48;99236.81;;;11.83;100.00
62849;BME280;48941;49.516;8.286;2023-10-31T08:43:16;99245.91;;;11.90;100.00
62849;BME280;48941;49.516;8.286;2023-10-31T08:45:44;99247.09;;;11.96;100.00
62849;BME280;48941;49.516;8.286;2023-10-31T08:48:12;99249.44;;;11.99;100.00
62849;BME280;48941;49.516;8.286;2023-10-31T08:50:42;99245.75;;;12.00;100.00
62849;BME280;48941;49.516;8.286;2023-10-31T08:53:10;99248.13;;;12.03;100.00
62849;BME280;48941;49.516;8.286;2023-10-31T08:55:38;99255.16;;;12.04;100.00
62849;BME280;48941;49.516;8.286;2023-10-31T08:58:09;99252.53;;;12.21;100.00
62849;BME280;48941;49.516;8.286;2023-10-31T09:00:37;99251.09;;;12.34;100.00
62849;BME280;48941;49.516;8.286;2023-10-31T09:03:05;99255.44;;;12.52;100.00
62849;BME280;48941;49.516;8.286;2023-10-31T09:05:33;99253.84;;;12.75;100.00
62849;BME280;48941;49.516;8.286;2023-10-31T09:08:02;99261.56;;;12.95;100.00
62849;BME280;48941;49.516;8.286;2023-10-31T09:10:30;99268.59;;;13.04;100.00
62849;BME280;48941;49.516;8.286;2023-10-31T09:12:57;99257.38;;;13.09;100.00
62849;BME280;48941;49.516;8.286;2023-10-31T09:15:28;99259.38;;;13.15;100.00
62849;BME280;48941;49.516;8.286;2023-10-31T09:17:56;99260.88;;;13.18;100.00
62849;BME280;48941;49.516;8.286;2023-10-31T09:20:24;99256.72;;;13.23;100.00
62849;BME280;48941;49.516;8.286;2023-10-31T09:22:52;99254.22;;;13.30;98.15
62849;BME280;48941;49.516;8.286;2023-10-31T09:25:20;99256.72;;;13.48;99.07
62849;BME280;48941;49.516;8.286;2023-10-31T09:27:48;99265.06;;;13.61;98.34
62849;BME280;48941;49.516;8.286;2023-10-31T09:30:15;99277.56;;;13.77;97.38
62849;BME280;48941;49.516;8.286;2023-10-31T09:32:45;99279.22;;;13.94;96.07
62849;BME280;48941;49.516;8.286;2023-10-31T09:35:13;99286.34;;;14.10;95.97
62849;BME280;48941;49.516;8.286;2023-10-31T09:37:44;99292.66;;;14.26;92.53
62849;BME280;48941;49.516;8.286;2023-10-31T09:40:15;99285.03;;;14.46;88.99
62849;BME280;48941;49.516;8.286;2023-10-31T09:42:44;99283.31;;;14.53;88.13
62849;BME280;48941;49.516;8.286;2023-10-31T09:45:13;99288.66;;;14.61;87.31
62849;BME280;48941;49.516;8.286;2023-10-31T09:47:41;99282.38;;;14.77;84.33
62849;BME280;48941;49.516;8.286;2023-10-31T09:50:11;99295.00;;;14.68;84.09
62849;BME280;48941;49.516;8.286;2023-10-31T09:52:39;99292.38;;;14.60;87.03
62849;BME280;48941;49.516;8.286;2023-10-31T09:55:08;99295.50;;;14.55;86.35
62849;BME280;48941;49.516;8.286;2023-10-31T09:57:36;99292.53;;;14.50;86.97
62849;BME280;48941;49.516;8.286;2023-10-31T10:00:05;99289.22;;;14.48;84.55
62849;BME280;48941;49.516;8.286;2023-10-31T10:02:33;99288.22;;;14.41;88.09
62849;BME280;48941;49.516;8.286;2023-10-31T10:05:02;99287.06;;;14.35;86.44
62849;BME280;48941;49.516;8.286;2023-10-31T10:07:33;99297.31;;;14.32;86.26
62849;BME280;48941;49.516;8.286;2023-10-31T10:10:01;99289.28;;;14.32;87.62
62849;BME280;48941;49.516;8.286;2023-10-31T10:12:29;99295.75;;;14.38;87.93
62849;BME280;48941;49.516;8.286;2023-10-31T10:14:58;99296.63;;;14.38;88.45
62849;BME280;48941;49.516;8.286;2023-10-31T10:17:26;99304.16;;;14.34;87.09
62849;BME280;48941;49.516;8.286;2023-10-31T10:20:09;99303.00;;;14.29;87.14
62849;BME280;48941;49.516;8.286;2023-10-31T10:22:39;99305.38;;;14.24;88.75
62849;BME280;48941;49.516;8.286;2023-10-31T10:25:09;99306.72;;;14.20;87.20
62849;BME280;48941;49.516;8.286;2023-10-31T10:27:38;99301.59;;;14.10;88.06
62849;BME280;48941;49.516;8.286;2023-10-31T10:30:08;99299.78;;;14.02;88.93
62849;BME280;48941;49.516;8.286;2023-10-31T10:32:36;99292.06;;;13.99;88.63
62849;BME280;48941;49.516;8.286;2023-10-31T10:35:05;99299.59;;;13.95;87.29
62849;BME280;48941;49.516;8.286;2023-10-31T10:37:36;99302.28;;;13.95;86.87
62849;BME280;48941;49.516;8.286;2023-10-31T10:40:08;99309.34;;;13.88;88.50
62849;BME280;48941;49.516;8.286;2023-10-31T10:42:44;99302.28;;;13.87;89.18
62849;BME280;48941;49.516;8.286;2023-10-31T10:45:15;99298.97;;;13.85;90.81
62849;BME280;48941;49.516;8.286;2023-10-31T10:47:46;99315.19;;;13.92;93.31
62849;BME280;48941;49.516;8.286;2023-10-31T10:50:15;99299.59;;;13.95;91.40
62849;BME280;48941;49.516;8.286;2023-10-31T10:52:49;99299.78;;;14.02;93.08
62849;BME280;48941;49.516;8.286;2023-10-31T10:55:20;99303.41;;;14.09;94.15
62849;BME280;48941;49.516;8.286;2023-10-31T10:57:56;99297.56;;;14.14;91.10
62849;BME280;48941;49.516;8.286;2023-10-31T11:00:28;99290.34;;;14.14;92.38
62849;BME280;48941;49.516;8.286;2023-10-31T11:02:57;99291.84;;;14.17;92.96
62849;BME280;48941;49.516;8.286;2023-10-31T11:05:25;99293.69;;;14.17;88.70
62849;BME280;48941;49.516;8.286;2023-10-31T11:07:57;99289.28;;;14.24;87.22
62849;BME280;48941;49.516;8.286;2023-10-31T11:10:27;99284.09;;;14.30;85.80
62849;BME280;48941;49.516;8.286;2023-10-31T11:12:56;99285.72;;;14.40;85.86
62849;BME280;48941;49.516;8.286;2023-10-31T11:15:25;99277.47;;;14.49;84.79
62849;BME280;48941;49.516;8.286;2023-10-31T11:17:55;99283.16;;;14.54;83.28
62849;BME280;48941;49.516;8.286;2023-10-31T11:20:24;99280.81;;;14.51;84.33
62849;BME280;48941;49.516;8.286;2023-10-31T11:22:56;99284.13;;;14.62;83.35
62849;BME280;48941;49.516;8.286;2023-10-31T11:25:26;99284.97;;;14.62;82.87
62849;BME280;48941;49.516;8.286;2023-10-31T11:28:11;99285.97;;;14.61;82.41
62849;BME280;48941;49.516;8.286;2023-10-31T11:30:39;99293.84;;;14.63;82.93
62849;BME280;48941;49.516;8.286;2023-10-31T11:33:11;99293.50;;;14.66;84.17
62849;BME280;48941;49.516;8.286;2023-10-31T11:35:40;99291.72;;;14.58;81.96
62849;BME280;48941;49.516;8.286;2023-10-31T11:38:09;99292.19;;;14.53;82.89
62849;BME280;48941;49.516;8.286;2023-10-31T11:40:58;99292.69;;;14.57;84.17
62849;BME280;48941;49.516;8.286;2023-10-31T11:43:45;99299.22;;;14.63;83.72
62849;BME280;48941;49.516;8.286;2023-10-31T11:46:19;99306.91;;;14.66;84.46
62849;BME280;48941;49.516;8.286;2023-10-31T11:48:48;99308.69;;;14.73;84.08
62849;BME280;48941;49.516;8.286;2023-10-31T11:51:18;99306.84;;;14.74;82.44
62849;BME280;48941;49.516;8.286;2023-10-31T11:53:47;99309.72;;;14.72;84.18
62849;BME280;48941;49.516;8.286;2023-10-31T11:56:17;99311.56;;;14.72;82.03
62849;BME280;48941;49.516;8.286;2023-10-31T11:58:54;99307.84;;;14.73;82.21
62849;BME280;48941;49.516;8.286;2023-10-31T12:01:22;99312.00;;;14.84;81.89
62849;BME280;48941;49.516;8.286;2023-10-31T12:03:50;99311.09;;;14.91;81.40
62849;BME280;48941;49.516;8.286;2023-10-31T12:06:19;99309.38;;;14.99;80.48
62849;BME280;48941;49.516;8.286;2023-10-31T12:08:48;99314.41;;;15.02;80.10
62849;BME280;48941;49.516;8.286;2023-10-31T12:11:19;99316.66;;;15.13;81.56
62849;BME280;48941;49.516;8.286;2023-10-31T12:13:53;99315.88;;;15.27;78.81
62849;BME280;48941;49.516;8.286;2023-10-31T12:16:26;99309.75;;;15.42;76.53
62849;BME280;48941;49.516;8.286;2023-10-31T12:18:55;99313.75;;;15.61;75.06
62849;BME280;48941;49.516;8.286;2023-10-31T12:21:45;99322.16;;;15.81;74.52
62849;BME280;48941;49.516;8.286;2023-10-31T12:24:16;99318.13;;;16.00;74.96
62849;BME280;48941;49.516;8.286;2023-10-31T12:26:46;99319.13;;;15.99;73.45
62849;BME280;48941;49.516;8.286;2023-10-31T12:29:15;99321.88;;;16.05;73.83
62849;BME280;48941;49.516;8.286;2023-10-31T12:31:44;99318.47;;;15.97;73.41
62849;BME280;48941;49.516;8.286;2023-10-31T12:34:13;99325.13;;;15.86;73.11
62849;BME280;48941;49.516;8.286;2023-10-31T12:36:42;99322.72;;;15.76;74.91
62849;BME280;48941;49.516;8.286;2023-10-31T12:39:14;99322.94;;;15.66;74.99
62849;BME280;48941;49.516;8.286;2023-10-31T12:41:43;99333.25;;;15.54;76.30
62849;BME280;48941;49.516;8.286;2023-10-31T12:44:16;99338.97;;;15.51;76.49
62849;BME280;48941;49.516;8.286;2023-10-31T12:46:47;99332.75;;;15.36;77.61
62849;BME280;48941;49.516;8.286;2023-10-31T12:49:17;99334.97;;;15.32;78.16
62849;BME280;48941;49.516;8.286;2023-10-31T12:51:55;99341.38;;;15.23;81.15
62849;BME280;48941;49.516;8.286;2023-10-31T12:54:28;99338.81;;;15.07;79.40
62849;BME280;48941;49.516;8.286;2023-10-31T12:57:00;99337.69;;;15.01;79.73
62849;BME280;48941;49.516;8.286;2023-10-31T12:59:31;99332.38;;;14.93;80.24
62849;BME280;48941;49.516;8.286;2023-10-31T13:01:59;99329.75;;;14.85;79.99